x

Prince Edward Pt (45135) Wave Buoy

5:00pm - Mon 22nd Sep 2014 All times are CDT. -5 hours from GMT.

  • Sig Wave height 4.9ft
  • Peak Period 6s
  • Wind
    22mph, 27mph gusts
  • Sea Temp 62°f
  • Air Temp 56°f
  • Sea Pressure 1017.9mb
  • Prince Edward Pt
  • Prince Edward Pt

More Historic Weather Station data

Upgrade to MSW Pro to gain access to the past 30 days of data for over 8000 Wavebouys and Weather Stations around the globe.

Join Pro

Comparision Forecast

View Surf forecast
   
Mon 09/22 5:00pm 5ft 6s 22 27 mph 1017.9mb 62f 56f
4:00pm 5ft 6s 20 27 mph 1017.4mb 62f 56f
3:00pm  -   -  25
mph
- - -
2:00pm 4.5ft 6s 20 27 mph 1016.5mb 62f 55f
1:00pm 4ft 6s 20 25 mph 1016.3mb 62f 54f
12:00pm 3.5ft 5s 18 22 mph 1015.9mb 62f 53f
11:00am 4ft 6s 18 20 mph 1015.7mb 62f 52f
10:00am 3.5ft 5s 16 25 mph 1015.2mb 62f 51f
9:00am 3.5ft 5s 20 29 mph 1014.2mb 62f 51f
8:00am 3.5ft 5s 22 29 mph 1013.3mb 62f 50f
7:00am 3.5ft 5s 25 29 mph 1012.3mb 62f 51f
6:00am 3ft 5s 20 29 mph 1011.6mb 62f 52f
5:00am 3ft 5s 18 25 mph 1010.4mb 62f 52f
4:00am 2.5ft 4s 18 27 mph 1008.6mb 62f 52f
3:00am 2.5ft 5s 20 25 mph 1007.7mb 62f 52f
2:00am 3ft 5s 20 25 mph 1006.5mb 62f 53f
1:00am 3ft 5s 20 25 mph 1005.6mb 62f 53f
12:00am 3ft 5s 22 27 mph 1004.7mb 62f 54f
Sun 09/21 11:00pm 2.5ft 5s 18 22 mph 1003.8mb 63f 56f
10:00pm 2.5ft 5s 20 22 mph 1003.3mb 63f 58f
9:00pm 3ft 4s 20 25 mph 1002.4mb 63f 60f
8:00pm 2.5ft 5s 18 22 mph 1001.3mb 63f 66f
7:00pm 2ft 4s 18 22 mph 1001.4mb 63f 66f
6:00pm 1.6ft 3s 18 20 mph 1001.3mb 63f 66f
5:00pm 2ft 4s 11 16 mph 1000.4mb 63f 66f
4:00pm 2ft 4s 13 16 mph 999.5mb 63f 66f
3:00pm 2.5ft 4s 11 13 mph 999.9mb 63f 67f
2:00pm 2.5ft 4s 13 16 mph 1000.4mb 63f 67f
1:00pm 3.5ft 4s 18 22 mph 1000.3mb 63f 67f
12:00pm 3.5ft 4s 25 29 mph 1000.4mb 63f 66f
11:00am 3.5ft 4s 22 25 mph 1001.3mb 63f 65f
10:00am 3.5ft 4s 25 31 mph 1001.7mb 63f 64f
9:00am 3ft 4s 20 22 mph 1003.5mb 63f 65f
8:00am 3.5ft 5s 20 25 mph 1004.3mb 63f 64f
7:00am 3.5ft 5s 22 25 mph 1004.9mb 63f 65f
6:00am 4ft 5s 22 25 mph 1005.3mb 63f 65f
5:00am 4.5ft 5s 22 27 mph 1005.5mb 63f 65f
4:00am 4.5ft 5s 25 29 mph 1005.6mb 63f 65f
3:00am  -   -  25
mph
1006mb - 66f
2:00am 5ft 5s 25 31 mph 1006.3mb 63f 66f
1:00am 4ft 5s 29 34 mph 1006.8mb 63f 66f
12:00am 4.5ft 5s 29 34 mph 1007.8mb 63f 66f
Sat 09/20 11:00pm 3.5ft 4s 25 31 mph 1009mb 63f 66f
10:00pm 3ft 4s 22 27 mph 1009.9mb 63f 66f
9:00pm 2.5ft 4s 20 25 mph 1010.2mb 63f 66f
8:00pm 2ft 3s 18 22 mph 1010.3mb 63f 66f
7:00pm 2ft 3s 18 22 mph 1010.7mb 63f 67f
6:00pm 2ft 4s 18 20 mph 1011.2mb 63f 67f
5:00pm 2ft 4s 16 18 mph 1011.7mb 63f 67f
4:00pm 2.5ft 4s 13 16 mph 1012.4mb 63f 66f
3:00pm 3ft 4s 16 18 mph 1012.3mb 63f 66f
2:00pm 3ft 4s 20 22 mph 1012.7mb 63f 67f
1:00pm 3.5ft 5s 18 22 mph 1013.5mb 63f 66f
12:00pm 4ft 5s 20 22 mph 1014.7mb 63f 66f
11:00am 4ft 5s 22 27 mph 1015.3mb 63f 65f
10:00am 4.5ft 6s 22 31 mph 1015.8mb 63f 65f
9:00am 4.5ft 5s 25 29 mph 1016.5mb 63f 64f
8:00am 5ft 6s 25 29 mph 1016.9mb 63f 63f
7:00am 5ft 5s 27 31 mph 1016.9mb 63f 63f
6:00am 4.5ft 5s 25 31 mph 1017.3mb 63f 63f
5:00am 4.5ft 5s 27 34 mph 1017.5mb 62f 62f
4:00am 4.5ft 5s 27 31 mph 1017.4mb 63f 62f
3:00am 4.5ft 4s 27 34 mph 1018mb 63f 61f
2:00am 4ft 4s 25 31 mph 1018.8mb 63f 62f
1:00am 4ft 4s 27 34 mph 1018.8mb 63f 61f
12:00am 4.5ft 4s 25 31 mph 1019.3mb 63f 61f
Fri 09/19 11:00pm 3.5ft 4s 25 29 mph 1019.7mb 63f 60f
10:00pm 2.5ft 4s 25 31 mph 1020mb 63f 61f
9:00pm 2ft 3s 20 25 mph 1021.1mb 63f 61f
8:00pm 1ft 2s 22 25 mph 1021.9mb 63f 61f
7:00pm 0.3ft 2s 16 18 mph 1023.1mb 63f 58f
6:00pm 0.3ft 4s 9 13 mph 1024.1mb 64f 55f
5:00pm 0.3ft 2s 7 11 mph 1025.3mb 64f 54f
4:00pm 0.3ft 2s 4 7 mph 1025mb 65f 52f
3:00pm 0.3ft 2s 2 4 mph 1026mb 65f 52f
2:00pm 0.3ft 3s 4 7 mph 1026.9mb 65f 51f
1:00pm 0.7ft 3s 2 4 mph 1027.8mb 64f 52f
12:00pm 0.7ft 3s  -  4 mph 1028.7mb 64f 51f
11:00am 1ft 4s 4 7 mph 1028.9mb 64f 50f
10:00am 1.6ft 4s 7 11 mph 1029.2mb 63f 49f
9:00am 2ft 4s 9 11 mph 1028.8mb 63f 49f
8:00am 2ft 4s 13 18 mph 1028.3mb 63f 48f
7:00am 2.5ft 4s 13 18 mph 1028.2mb 63f 48f
5:00am 2.5ft 4s 16 20 mph 1027.4mb 63f 48f
4:00am 3ft 5s 18 22 mph 1026.9mb 63f 48f
2:00am 3.5ft 4s 18 22 mph 1026.3mb 63f 49f
1:00am  -   -  20
mph
- - -
12:00am 3ft 4s 20 27 mph 1024.7mb 64f 50f